• Join FlightAware (Why Join?)
  • Login
  • US Flag 
02:51PM EDT


 

Airport Tracker/Info


-or-


 

Live Flight TrackerFlight Track Log ✈ FWL721 ✈ 15-Jul-2013 ✈ KMIA - SGES / AGT

Flight Track Log - Related Links

Times and Time Zones

All times are in EDT time to prevent confusion due to time zone crossing. See the FWL721 flight status page for this flight to view local times or setup timezone preferences in your user account.

Time Position Orientation Groundspeed Altitude Reporting Facility
EDT Latitude Longitude Course Direction KTS MPH feet Rate Location/Type
02:27PM 25.7836 -80.2694 115° Southeast 182 209 1,000  Level Miami Center
02:28PM 25.7658 -80.2275 115° Southeast 210 242 1,900 1,740 Climbing Miami Center
02:29PM 25.7297 -80.1664 123° Southeast 258 297 4,100 1,980 Climbing Miami Center
02:30PM 25.6631 -80.1578 173° South 276 318 6,100 1,560 Climbing Miami Center
02:31PM 25.5836 -80.1556 179° South 276 318 7,300 1,800 Climbing Miami Center
02:32PM 25.5022 -80.1511 177° South 288 331 9,800 1,920 Climbing Miami Center
02:33PM 25.4281 -80.1053 151° Southeast 288 331 11,200 1,320 Climbing Miami Center
02:34PM 25.3394 -80.0500 151° Southeast 322 371 12,500 1,740 Climbing Miami Center
02:35PM 25.2447 -79.9903 150° Southeast 364 419 14,700 2,100 Climbing Miami Center
02:36PM 25.1522 -79.9189 145° Southeast 392 451 16,800 1,860 Climbing Miami Center
02:37PM 25.0533 -79.8478 147° Southeast 409 471 18,500 1,680 Climbing Miami Center
02:38PM 24.9544 -79.7719 145° Southeast 422 486 20,200 1,560 Climbing Miami Center
02:39PM 24.8514 -79.6961 146° Southeast 437 503 21,700 1,500 Climbing Miami Center
02:40PM 24.7444 -79.6183 147° Southeast 449 517 23,200 1,440 Climbing Miami Center
02:41PM 24.6331 -79.5381 147° Southeast 466 536 24,600 1,320 Climbing Miami Center
02:42PM 24.5258 -79.4514 144° Southeast 478 550 25,900 1,320 Climbing Miami Center
02:43PM 24.4122 -79.3692 147° Southeast 484 557 27,300 1,380 Climbing Miami Center
02:44PM 24.2944 -79.2892 148° Southeast 489 563 28,700 1,500 Climbing Miami Center
02:45PM 24.1853 -79.2050 145° Southeast 495 570 30,400 1,140 Climbing Miami Center
02:46PM 24.0756 -79.1233 146° Southeast 495 570 31,000 600 Climbing Miami Center
02:48PM 24.0086 -78.9069 81° East  Level FlightAware Approximate
02:55PM 24.1845 -77.7010 81° East  Level FlightAware Approximate
02:56PM 24.2083 -77.5283 81° East  Level FlightAware Approximate
02:57PM 24.2320 -77.3556 81° East  Level FlightAware Approximate
02:58PM 24.2554 -77.1828 82° East  Level FlightAware Approximate
02:59PM 24.2787 -77.0099 82° East  Level FlightAware Approximate
03:00PM 24.3017 -76.8370 82° East  Level FlightAware Approximate
03:01PM 24.3243 -76.6640 82° East  Level FlightAware Approximate
03:02PM 24.3467 -76.4909 82° East  Level FlightAware Approximate
03:03PM 24.3689 -76.3178 82° East  Level FlightAware Approximate
03:04PM 24.3910 -76.1446 82° East  Level FlightAware Approximate
03:05PM 24.4128 -75.9713 82° East  Level FlightAware Approximate
03:06PM 24.4344 -75.7980 82° East  Level FlightAware Approximate
03:07PM 24.4559 -75.6246 82° East  Level FlightAware Approximate
03:08PM 24.4771 -75.4512 82° East  Level FlightAware Approximate
03:09PM 24.4986 -75.2777 82° East  Level FlightAware Approximate
03:10PM 24.5201 -75.1043 82° East  Level FlightAware Approximate
03:11PM 24.5415 -74.9308 82° East  Level FlightAware Approximate
03:12PM 24.5626 -74.7572 82° East  Level FlightAware Approximate
03:13PM 24.5835 -74.5835 82° East  Level FlightAware Approximate
03:14PM 24.6042 -74.4099 82° East  Level FlightAware Approximate
03:15PM 24.6247 -74.2361 83° East  Level FlightAware Approximate
03:16PM 24.6451 -74.0623 83° East  Level FlightAware Approximate
03:17PM 24.6652 -73.8884 83° East  Level FlightAware Approximate
03:18PM 24.6851 -73.7145 83° East  Level FlightAware Approximate
03:19PM 24.7048 -73.5405 83° East  Level FlightAware Approximate
03:20PM 24.7243 -73.3665 83° East  Level FlightAware Approximate
03:21PM 24.7437 -73.1924 83° East  Level FlightAware Approximate
03:22PM 24.7628 -73.0183 83° East  Level FlightAware Approximate
03:23PM 24.7817 -72.8441 83° East  Level FlightAware Approximate
03:24PM 24.8004 -72.6699 83° East  Level FlightAware Approximate
03:25PM 24.8189 -72.4956 83° East  Level FlightAware Approximate
03:26PM 24.8373 -72.3212 83° East  Level FlightAware Approximate
03:27PM 24.8555 -72.1468 83° East  Level FlightAware Approximate
03:28PM 24.8734 -71.9724 83° East  Level FlightAware Approximate
03:29PM 24.8912 -71.7979 84° East  Level FlightAware Approximate
03:30PM 24.9088 -71.6234 84° East  Level FlightAware Approximate
03:31PM 24.9262 -71.4488 84° East  Level FlightAware Approximate
03:32PM 24.9433 -71.2741 84° East  Level FlightAware Approximate
03:33PM 24.9603 -71.0994 84° East  Level FlightAware Approximate
03:34PM 24.9667 -70.9241 90° East  Level FlightAware Approximate
03:35PM 24.9916 -70.7509 80° East  Level FlightAware Approximate
03:36PM 25.0103 -70.5765 85° East  Level FlightAware Approximate
03:37PM 25.0247 -70.4014 85° East  Level FlightAware Approximate
03:38PM 25.0389 -70.2263 85° East  Level FlightAware Approximate
03:39PM 25.0529 -70.0512 85° East  Level FlightAware Approximate
03:40PM 25.0667 -69.8760 85° East  Level FlightAware Approximate
03:41PM 25.0803 -69.7008 85° East  Level FlightAware Approximate
03:42PM 25.0937 -69.5255 85° East  Level FlightAware Approximate
03:43PM 25.1069 -69.3502 85° East  Level FlightAware Approximate
03:44PM 25.1199 -69.1749 85° East  Level FlightAware Approximate
03:45PM 25.1326 -68.9995 85° East  Level FlightAware Approximate
03:46PM 25.1452 -68.8241 85° East  Level FlightAware Approximate
03:47PM 25.1575 -68.6487 86° East  Level FlightAware Approximate
03:48PM 25.1702 -68.4732 85° East  Level FlightAware Approximate
03:49PM 25.1845 -68.2979 85° East  Level FlightAware Approximate
03:50PM 25.1985 -68.1226 85° East  Level FlightAware Approximate
03:51PM 25.2123 -67.9472 85° East  Level FlightAware Approximate
03:52PM 25.2259 -67.7718 85° East  Level FlightAware Approximate
03:53PM 25.2393 -67.5963 85° East  Level FlightAware Approximate
03:54PM 25.2525 -67.4208 85° East  Level FlightAware Approximate
03:55PM 25.2655 -67.2452 85° East  Level FlightAware Approximate
03:56PM 25.2783 -67.0697 85° East  Level FlightAware Approximate
03:57PM 25.2901 -66.8940 86° East  Level FlightAware Approximate
03:58PM 25.3012 -66.7182 86° East  Level FlightAware Approximate
03:59PM 25.3120 -66.5424 86° East  Level FlightAware Approximate
04:00PM 25.3227 -66.3666 86° East  Level FlightAware Approximate
04:01PM 25.3331 -66.1908 86° East  Level FlightAware Approximate
04:02PM 25.3434 -66.0149 86° East  Level FlightAware Approximate
04:03PM 25.3534 -65.8390 86° East  Level FlightAware Approximate
04:04PM 25.3632 -65.6630 86° East  Level FlightAware Approximate
04:05PM 25.3728 -65.4871 87° East  Level FlightAware Approximate
04:06PM 25.3822 -65.3111 87° East  Level FlightAware Approximate
04:07PM 25.3914 -65.1351 87° East  Level FlightAware Approximate
04:08PM 25.4004 -64.9590 87° East  Level FlightAware Approximate
04:09PM 25.4091 -64.7830 87° East  Level FlightAware Approximate
04:10PM 25.4177 -64.6068 87° East  Level FlightAware Approximate
04:11PM 25.4261 -64.4307 87° East  Level FlightAware Approximate
04:12PM 25.4342 -64.2546 87° East  Level FlightAware Approximate
04:13PM 25.4421 -64.0784 87° East  Level FlightAware Approximate
04:14PM 25.4499 -63.9022 87° East  Level FlightAware Approximate
04:15PM 25.4573 -63.7260 87° East  Level FlightAware Approximate
04:16PM 25.4646 -63.5498 87° East  Level FlightAware Approximate
04:17PM 25.4723 -63.3735 87° East  Level FlightAware Approximate
04:18PM 25.4800 -63.1973 87° East  Level FlightAware Approximate
04:19PM 25.4876 -63.0210 87° East  Level FlightAware Approximate
04:20PM 25.4949 -62.8447 87° East  Level FlightAware Approximate
04:21PM 25.5019 -62.6684 87° East  Level FlightAware Approximate
04:22PM 25.5088 -62.4921 87° East  Level FlightAware Approximate
04:23PM 25.5155 -62.3158 88° East  Level FlightAware Approximate
04:24PM 25.5219 -62.1394 88° East  Level FlightAware Approximate
04:25PM 25.5282 -61.9631 88° East  Level FlightAware Approximate
04:26PM 25.5342 -61.7867 88° East  Level FlightAware Approximate
04:27PM 25.5400 -61.6102 88° East  Level FlightAware Approximate
04:28PM 25.5456 -61.4338 88° East  Level FlightAware Approximate
04:29PM 25.5510 -61.2574 88° East  Level FlightAware Approximate
04:30PM 25.5562 -61.0809 88° East  Level FlightAware Approximate
04:31PM 25.5612 -60.9044 88° East  Level FlightAware Approximate
04:32PM 25.5659 -60.7279 88° East  Level FlightAware Approximate
04:33PM 25.5705 -60.5514 88° East  Level FlightAware Approximate
04:34PM 25.5748 -60.3749 88° East  Level FlightAware Approximate
04:35PM 25.5790 -60.1983 88° East  Level FlightAware Approximate
04:36PM 25.5829 -60.0218 89° East  Level FlightAware Approximate
04:37PM 25.5856 -59.8452 89° East  Level FlightAware Approximate
04:38PM 25.5881 -59.6686 89° East  Level FlightAware Approximate
04:39PM 25.5903 -59.4920 89° East  Level FlightAware Approximate
04:40PM 25.5923 -59.3154 89° East  Level FlightAware Approximate
04:41PM 25.5941 -59.1388 89° East  Level FlightAware Approximate
04:42PM 25.5957 -58.9622 89° East  Level FlightAware Approximate
04:43PM 25.5971 -58.7856 89° East  Level FlightAware Approximate
04:44PM 25.5982 -58.6089 90° East  Level FlightAware Approximate
04:45PM 25.5992 -58.4323 90° East  Level FlightAware Approximate
04:46PM 25.5999 -58.2557 90° East  Level FlightAware Approximate
04:47PM 25.6005 -58.0791 90° East  Level FlightAware Approximate
04:48PM 25.6008 -57.9024 90° East  Level FlightAware Approximate
04:49PM 25.6009 -57.7258 90° East  Level FlightAware Approximate
04:50PM 25.6008 -57.5492 90° East  Level FlightAware Approximate
04:51PM 25.6005 -57.3725 90° East  Level FlightAware Approximate
04:52PM 25.6001 -57.1959 90° East  Level FlightAware Approximate
04:53PM 25.6008 -57.0193 90° East  Level FlightAware Approximate
04:54PM 25.6012 -56.8427 90° East  Level FlightAware Approximate
04:55PM 25.6015 -56.6660 90° East  Level FlightAware Approximate
04:56PM 25.6015 -56.4894 90° East  Level FlightAware Approximate
04:57PM 25.6014 -56.3128 90° East  Level FlightAware Approximate
04:58PM 25.6010 -56.1361 90° East  Level FlightAware Approximate
04:59PM 25.6004 -55.9595 90° East  Level FlightAware Approximate
05:00PM 25.5983 -55.7829 91° East  Level FlightAware Approximate
05:01PM 25.5946 -55.6063 91° East  Level FlightAware Approximate
05:02PM 25.5907 -55.4298 91° East  Level FlightAware Approximate
05:03PM 25.5866 -55.2532 91° East  Level FlightAware Approximate
05:04PM 25.5823 -55.0767 92° East  Level FlightAware Approximate
05:05PM 25.5777 -54.9002 92° East  Level FlightAware Approximate
05:06PM 25.5730 -54.7236 92° East  Level FlightAware Approximate
05:07PM 25.5680 -54.5471 92° East  Level FlightAware Approximate
05:08PM 25.4508 -54.5154 187° South  Level FlightAware Approximate
05:09PM 25.2926 -54.5364 187° South  Level FlightAware Approximate
05:10PM 25.1345 -54.5574 187° South  Level FlightAware Approximate
05:11PM 24.9763 -54.5783 187° South  Level FlightAware Approximate
05:12PM 24.8181 -54.5991 187° South  Level FlightAware Approximate
05:13PM 24.6600 -54.6199 187° South  Level FlightAware Approximate
05:14PM 24.5018 -54.6407 187° South  Level FlightAware Approximate
05:15PM 24.3436 -54.6614 187° South  Level FlightAware Approximate
05:16PM 24.1854 -54.6820 187° South  Level FlightAware Approximate
05:17PM 24.0273 -54.7026 187° South  Level FlightAware Approximate
05:18PM 23.8691 -54.7231 187° South  Level FlightAware Approximate
05:19PM 23.7109 -54.7436 187° South  Level FlightAware Approximate
05:20PM 23.5527 -54.7640 187° South  Level FlightAware Approximate
05:21PM 23.3945 -54.7844 187° South  Level FlightAware Approximate
05:22PM 23.2363 -54.8047 187° South  Level FlightAware Approximate
05:23PM 23.0781 -54.8250 187° South  Level FlightAware Approximate
05:24PM 22.9200 -54.8453 187° South  Level FlightAware Approximate
05:25PM 22.7617 -54.8655 187° South  Level FlightAware Approximate
05:26PM 22.6035 -54.8856 187° South  Level FlightAware Approximate
05:27PM 22.4454 -54.9057 187° South  Level FlightAware Approximate
05:28PM 22.2871 -54.9258 187° South  Level FlightAware Approximate
05:29PM 22.1289 -54.9458 187° South  Level FlightAware Approximate
05:30PM 21.9707 -54.9658 187° South  Level FlightAware Approximate
05:31PM 21.8125 -54.9857 187° South  Level FlightAware Approximate
05:32PM 21.6543 -55.0056 187° South  Level FlightAware Approximate
05:33PM 21.4961 -55.0254 187° South  Level FlightAware Approximate
05:34PM 21.3379 -55.0452 187° South  Level FlightAware Approximate
05:35PM 21.1796 -55.0649 187° South  Level FlightAware Approximate
05:36PM 21.0214 -55.0846 187° South  Level FlightAware Approximate
05:37PM 20.8632 -55.1043 187° South  Level FlightAware Approximate
05:38PM 20.7050 -55.1239 187° South  Level FlightAware Approximate
05:39PM 20.5467 -55.1435 187° South  Level FlightAware Approximate
05:40PM 20.3885 -55.1630 187° South  Level FlightAware Approximate
05:41PM 20.2302 -55.1825 187° South  Level FlightAware Approximate
05:42PM 20.0720 -55.2020 187° South  Level FlightAware Approximate
05:43PM 19.9138 -55.2214 187° South  Level FlightAware Approximate
05:44PM 19.7555 -55.2408 187° South  Level FlightAware Approximate
05:45PM 19.5973 -55.2601 187° South  Level FlightAware Approximate
05:46PM 19.4390 -55.2794 187° South  Level FlightAware Approximate
05:47PM 19.2808 -55.2987 187° South  Level FlightAware Approximate
05:48PM 19.1225 -55.3179 187° South  Level FlightAware Approximate
05:49PM 18.9643 -55.3371 187° South  Level FlightAware Approximate
05:50PM 18.8060 -55.3563 187° South  Level FlightAware Approximate
05:51PM 18.6478 -55.3754 187° South  Level FlightAware Approximate
05:52PM 18.4895 -55.3945 187° South  Level FlightAware Approximate
05:53PM 18.3313 -55.4136 187° South  Level FlightAware Approximate
05:54PM 18.1730 -55.4326 187° South  Level FlightAware Approximate
05:55PM 18.0147 -55.4499 187° South  Level FlightAware Approximate
05:56PM 17.8564 -55.4693 187° South  Level FlightAware Approximate
05:57PM 17.6982 -55.4886 187° South  Level FlightAware Approximate
05:58PM 17.5400 -55.5079 187° South  Level FlightAware Approximate
05:59PM 17.3818 -55.5272 187° South  Level FlightAware Approximate
06:00PM 17.2235 -55.5464 187° South  Level FlightAware Approximate
06:01PM 17.0653 -55.5656 187° South  Level FlightAware Approximate
06:02PM 16.9071 -55.5848 187° South  Level FlightAware Approximate
06:03PM 16.7488 -55.6039 187° South  Level FlightAware Approximate
06:04PM 16.5906 -55.6230 187° South  Level FlightAware Approximate
06:05PM 16.4324 -55.6421 187° South  Level FlightAware Approximate
06:06PM 16.2741 -55.6605 186° South  Level FlightAware Approximate
06:07PM 16.1157 -55.6784 186° South  Level FlightAware Approximate
06:08PM 15.9573 -55.6962 186° South  Level FlightAware Approximate
06:09PM 15.7990 -55.7141 186° South  Level FlightAware Approximate
06:10PM 15.6406 -55.7318 186° South  Level FlightAware Approximate
06:11PM 15.4823 -55.7496 186° South  Level FlightAware Approximate
06:12PM 15.3239 -55.7674 186° South  Level FlightAware Approximate
06:13PM 15.1655 -55.7851 186° South  Level FlightAware Approximate
06:14PM 15.0071 -55.8028 186° South  Level FlightAware Approximate
06:15PM 14.8488 -55.8204 186° South  Level FlightAware Approximate
06:16PM 14.6904 -55.8381 186° South  Level FlightAware Approximate
06:17PM 14.5321 -55.8563 187° South  Level FlightAware Approximate
06:18PM 14.3739 -55.8756 187° South  Level FlightAware Approximate
06:19PM 14.2157 -55.8949 187° South  Level FlightAware Approximate
06:20PM 14.0575 -55.9142 187° South  Level FlightAware Approximate
06:21PM 13.8993 -55.9335 187° South  Level FlightAware Approximate
06:22PM 13.7411 -55.9527 187° South  Level FlightAware Approximate
06:23PM 13.5830 -55.9720 187° South  Level FlightAware Approximate
06:24PM 13.4248 -55.9911 187° South  Level FlightAware Approximate
06:25PM 13.2666 -56.0103 187° South  Level FlightAware Approximate
06:26PM 13.1084 -56.0294 187° South  Level FlightAware Approximate
06:27PM 12.9502 -56.0485 187° South  Level FlightAware Approximate
06:28PM 12.7920 -56.0676 186° South  Level FlightAware Approximate
06:29PM 12.6337 -56.0856 186° South  Level FlightAware Approximate
06:30PM 12.4754 -56.1037 186° South  Level FlightAware Approximate
06:31PM 12.3170 -56.1217 186° South  Level FlightAware Approximate
06:32PM 12.1587 -56.1397 186° South  Level FlightAware Approximate
06:33PM 12.0004 -56.1576 186° South  Level FlightAware Approximate
06:34PM 11.8421 -56.1756 186° South  Level FlightAware Approximate
06:35PM 11.6838 -56.1935 186° South  Level FlightAware Approximate
06:36PM 11.5254 -56.2114 186° South  Level FlightAware Approximate
06:37PM 11.3671 -56.2293 186° South  Level FlightAware Approximate
06:38PM 11.2088 -56.2472 186° South  Level FlightAware Approximate
06:39PM 11.0505 -56.2650 186° South  Level FlightAware Approximate
06:40PM 10.8922 -56.2828 186° South  Level FlightAware Approximate
06:41PM 10.7338 -56.3007 186° South  Level FlightAware Approximate
06:42PM 10.5755 -56.3185 186° South  Level FlightAware Approximate
06:43PM 10.4172 -56.3362 186° South  Level FlightAware Approximate
06:44PM 10.2589 -56.3540 186° South  Level FlightAware Approximate
06:45PM 10.1005 -56.3717 186° South  Level FlightAware Approximate
06:46PM 9.9422 -56.3894 186° South  Level FlightAware Approximate
06:47PM 9.7839 -56.4071 186° South  Level FlightAware Approximate
06:48PM 9.6255 -56.4248 186° South  Level FlightAware Approximate
06:49PM 9.4672 -56.4425 186° South  Level FlightAware Approximate
06:50PM 9.3089 -56.4601 186° South  Level FlightAware Approximate
06:51PM 9.1505 -56.4777 186° South  Level FlightAware Approximate
06:52PM 8.9922 -56.4954 186° South  Level FlightAware Approximate
06:53PM 8.8338 -56.5130 186° South  Level FlightAware Approximate
06:54PM 8.6755 -56.5306 186° South  Level FlightAware Approximate
06:55PM 8.5172 -56.5481 186° South  Level FlightAware Approximate
06:56PM 8.3588 -56.5657 186° South  Level FlightAware Approximate
06:57PM 8.2005 -56.5832 186° South  Level FlightAware Approximate
06:58PM 8.0421 -56.6006 186° South  Level FlightAware Approximate
06:59PM 7.8838 -56.6181 186° South  Level FlightAware Approximate
07:00PM 7.7254 -56.6355 186° South  Level FlightAware Approximate
07:01PM 7.5671 -56.6530 186° South  Level FlightAware Approximate
07:02PM 7.4087 -56.6704 186° South  Level FlightAware Approximate
07:03PM 7.2504 -56.6878 186° South  Level FlightAware Approximate
07:04PM 7.0920 -56.7052 186° South  Level FlightAware Approximate
07:05PM 6.9337 -56.7225 186° South  Level FlightAware Approximate
07:06PM 6.7753 -56.7399 186° South  Level FlightAware Approximate
07:07PM 6.6170 -56.7573 186° South  Level FlightAware Approximate
07:08PM 6.4586 -56.7748 186° South  Level FlightAware Approximate
07:09PM 6.3003 -56.7922 186° South  Level FlightAware Approximate
07:10PM 6.1420 -56.8097 186° South  Level FlightAware Approximate
07:11PM 5.9836 -56.8271 186° South  Level FlightAware Approximate
07:12PM 5.8253 -56.8445 186° South  Level FlightAware Approximate
07:13PM 5.6669 -56.8619 186° South  Level FlightAware Approximate
07:14PM 5.5086 -56.8793 186° South  Level FlightAware Approximate
07:15PM 5.3502 -56.8967 186° South  Level FlightAware Approximate
07:16PM 5.1919 -56.9141 186° South  Level FlightAware Approximate
07:17PM 5.0335 -56.9315 186° South  Level FlightAware Approximate
07:18PM 4.8752 -56.9488 186° South  Level FlightAware Approximate
07:19PM 4.7168 -56.9661 186° South  Level FlightAware Approximate
07:20PM 4.5585 -56.9834 186° South  Level FlightAware Approximate
07:21PM 4.4001 -57.0007 186° South  Level FlightAware Approximate
07:22PM 4.2418 -57.0180 186° South  Level FlightAware Approximate
07:23PM 4.0834 -57.0353 186° South  Level FlightAware Approximate
07:24PM 3.9251 -57.0526 186° South  Level FlightAware Approximate
07:25PM 3.7667 -57.0698 186° South  Level FlightAware Approximate
07:26PM 3.6084 -57.0871 186° South  Level FlightAware Approximate
07:27PM 3.4500 -57.1044 186° South  Level FlightAware Approximate
07:28PM 3.2917 -57.1216 186° South  Level FlightAware Approximate
07:29PM 3.1333 -57.1389 186° South  Level FlightAware Approximate
07:30PM 2.9749 -57.1561 186° South  Level FlightAware Approximate
07:31PM 2.8166 -57.1733 186° South  Level FlightAware Approximate
07:32PM 2.6582 -57.1906 186° South  Level FlightAware Approximate
07:33PM 2.4999 -57.2078 186° South  Level FlightAware Approximate
07:34PM 2.3415 -57.2250 186° South  Level FlightAware Approximate
07:35PM 2.1831 -57.2422 186° South  Level FlightAware Approximate
07:36PM 2.0248 -57.2594 186° South  Level FlightAware Approximate
07:37PM 1.8664 -57.2767 186° South  Level FlightAware Approximate
07:38PM 1.7081 -57.2939 186° South  Level FlightAware Approximate
07:39PM 1.5497 -57.3111 186° South  Level FlightAware Approximate
07:40PM 1.3913 -57.3283 186° South  Level FlightAware Approximate
07:41PM 1.2330 -57.3455 186° South  Level FlightAware Approximate
07:42PM 1.0746 -57.3627 186° South  Level FlightAware Approximate
07:43PM 0.9163 -57.3799 186° South  Level FlightAware Approximate
07:44PM 0.7579 -57.3971 186° South  Level FlightAware Approximate
07:45PM 0.5995 -57.4143 186° South  Level FlightAware Approximate
07:46PM 0.4412 -57.4315 186° South  Level FlightAware Approximate
07:47PM 0.2828 -57.4487 186° South  Level FlightAware Approximate
07:48PM 0.1245 -57.4658 186° South  Level FlightAware Approximate
07:49PM -0.0339 -57.4830 186° South  Level FlightAware Approximate
07:50PM -0.1923 -57.5002 186° South  Level FlightAware Approximate
07:51PM -0.3506 -57.5174 186° South  Level FlightAware Approximate
07:52PM -0.5090 -57.5346 186° South  Level FlightAware Approximate
07:53PM -0.6673 -57.5518 186° South  Level FlightAware Approximate
07:54PM -0.8257 -57.5690 186° South  Level FlightAware Approximate
07:55PM -0.9841 -57.5862 186° South  Level FlightAware Approximate
07:56PM -1.1424 -57.6034 186° South  Level FlightAware Approximate
07:57PM -1.3008 -57.6206 186° South  Level FlightAware Approximate
07:58PM -1.4591 -57.6378 186° South  Level FlightAware Approximate
07:59PM -1.6175 -57.6550 186° South  Level FlightAware Approximate
08:00PM -1.7759 -57.6722 186° South  Level FlightAware Approximate
08:01PM -1.9342 -57.6894 186° South  Level FlightAware Approximate
08:02PM -2.0926 -57.7066 186° South  Level FlightAware Approximate
08:03PM -2.2509 -57.7238 186° South  Level FlightAware Approximate
08:04PM -2.4093 -57.7411 186° South  Level FlightAware Approximate
08:05PM -2.5677 -57.7583 186° South  Level FlightAware Approximate
08:06PM -2.7260 -57.7755 186° South  Level FlightAware Approximate
08:07PM -2.8844 -57.7927 186° South  Level FlightAware Approximate
08:08PM -3.0427 -57.8100 186° South  Level FlightAware Approximate
08:09PM -3.2011 -57.8272 186° South  Level FlightAware Approximate
08:10PM -3.3595 -57.8445 186° South  Level FlightAware Approximate
08:11PM -3.5178 -57.8617 186° South  Level FlightAware Approximate
08:12PM -3.6762 -57.8790 186° South  Level FlightAware Approximate
08:13PM -3.8345 -57.8962 186° South  Level FlightAware Approximate
08:14PM -3.9929 -57.9135 186° South  Level FlightAware Approximate
08:15PM -4.1512 -57.9308 186° South  Level FlightAware Approximate
08:16PM -4.3096 -57.9481 186° South  Level FlightAware Approximate
08:17PM -4.4679 -57.9654 186° South  Level FlightAware Approximate
08:18PM -4.6263 -57.9827 186° South  Level FlightAware Approximate
08:19PM -4.7846 -58.0000 186° South  Level FlightAware Approximate
08:20PM -4.9430 -58.0173 186° South  Level FlightAware Approximate
08:21PM -5.1013 -58.0346 186° South  Level FlightAware Approximate
08:22PM -5.2597 -58.0519 186° South  Level FlightAware Approximate
08:23PM -5.4180 -58.0693 186° South  Level FlightAware Approximate
08:24PM -5.5764 -58.0866 186° South  Level FlightAware Approximate
08:25PM -5.7347 -58.1040 186° South  Level FlightAware Approximate
08:26PM -5.8931 -58.1214 186° South  Level FlightAware Approximate
08:27PM -6.0514 -58.1387 186° South  Level FlightAware Approximate
08:28PM -6.2098 -58.1561 186° South  Level FlightAware Approximate
08:29PM -6.3681 -58.1735 186° South  Level FlightAware Approximate
08:30PM -6.5265 -58.1909 186° South  Level FlightAware Approximate
08:31PM -6.6848 -58.2084 186° South  Level FlightAware Approximate
08:32PM -6.8432 -58.2258 186° South  Level FlightAware Approximate
08:33PM -7.0015 -58.2433 186° South  Level FlightAware Approximate
08:34PM -7.1599 -58.2607 186° South  Level FlightAware Approximate
08:35PM -7.3182 -58.2782 186° South  Level FlightAware Approximate
08:36PM -7.4766 -58.2957 186° South  Level FlightAware Approximate
08:37PM -7.6349 -58.3131 186° South  Level FlightAware Approximate
08:38PM -7.7932 -58.3307 186° South  Level FlightAware Approximate
08:39PM -7.9516 -58.3482 186° South  Level FlightAware Approximate
08:40PM -8.1099 -58.3657 186° South  Level FlightAware Approximate
08:41PM -8.2683 -58.3833 186° South  Level FlightAware Approximate
08:42PM -8.4266 -58.4008 186° South  Level FlightAware Approximate
08:43PM -8.5849 -58.4184 186° South  Level FlightAware Approximate
08:44PM -8.7433 -58.4360 186° South  Level FlightAware Approximate
08:45PM -8.9016 -58.4536 186° South  Level FlightAware Approximate
08:46PM -9.0599 -58.4712 186° South  Level FlightAware Approximate
08:47PM -9.2183 -58.4889 186° South  Level FlightAware Approximate
08:48PM -9.3766 -58.5065 186° South  Level FlightAware Approximate
08:49PM -9.5349 -58.5242 186° South  Level FlightAware Approximate
08:50PM -9.6933 -58.5419 186° South  Level FlightAware Approximate
08:51PM -9.8516 -58.5596 186° South  Level FlightAware Approximate
08:52PM -10.0099 -58.5773 186° South  Level FlightAware Approximate
08:53PM -10.1683 -58.5950 186° South  Level FlightAware Approximate
08:54PM -10.3266 -58.6128 186° South  Level FlightAware Approximate
08:55PM -10.4849 -58.6305 186° South  Level FlightAware Approximate
08:56PM -10.6433 -58.6483 186° South  Level FlightAware Approximate
08:57PM -10.8016 -58.6661 186° South  Level FlightAware Approximate
08:58PM -10.9599 -58.6840 186° South  Level FlightAware Approximate
08:59PM -11.1182 -58.7018 186° South  Level FlightAware Approximate
09:00PM -11.2765 -58.7197 186° South  Level FlightAware Approximate
09:01PM -11.4349 -58.7376 186° South  Level FlightAware Approximate
09:02PM -11.5932 -58.7555 186° South  Level FlightAware Approximate
09:03PM -11.7515 -58.7734 186° South  Level FlightAware Approximate
09:04PM -11.9098 -58.7914 186° South  Level FlightAware Approximate
09:05PM -12.0681 -58.8093 186° South  Level FlightAware Approximate
09:06PM -12.2265 -58.8273 186° South  Level FlightAware Approximate
09:07PM -12.3848 -58.8453 186° South  Level FlightAware Approximate
09:08PM -12.5431 -58.8633 186° South  Level FlightAware Approximate
09:09PM -12.7014 -58.8814 186° South  Level FlightAware Approximate
09:10PM -12.8597 -58.8995 186° South  Level FlightAware Approximate
09:11PM -13.0180 -58.9176 186° South  Level FlightAware Approximate
09:12PM -13.1763 -58.9357 186° South  Level FlightAware Approximate
09:13PM -13.3346 -58.9538 186° South  Level FlightAware Approximate
09:14PM -13.4929 -58.9720 186° South  Level FlightAware Approximate
09:15PM -13.6512 -58.9902 186° South  Level FlightAware Approximate
09:16PM -13.8095 -59.0084 186° South  Level FlightAware Approximate
09:17PM -13.9678 -59.0267 186° South  Level FlightAware Approximate
09:18PM -14.1261 -59.0449 186° South  Level FlightAware Approximate
09:19PM -14.2844 -59.0632 186° South  Level FlightAware Approximate
09:20PM -14.4427 -59.0816 186° South  Level FlightAware Approximate
09:21PM -14.6010 -59.0999 186° South  Level FlightAware Approximate
09:22PM -14.7593 -59.1183 186° South  Level FlightAware Approximate
09:23PM -14.9176 -59.1367 186° South  Level FlightAware Approximate
09:24PM -15.0759 -59.1551 186° South  Level FlightAware Approximate
09:25PM -15.2342 -59.1735 186° South  Level FlightAware Approximate
09:26PM -15.3925 -59.1920 186° South  Level FlightAware Approximate
09:27PM -15.5508 -59.2105 186° South  Level FlightAware Approximate
09:28PM -15.7091 -59.2291 186° South  Level FlightAware Approximate
09:29PM -15.8673 -59.2476 186° South  Level FlightAware Approximate
09:30PM -16.0256 -59.2662 186° South  Level FlightAware Approximate
09:31PM -16.1839 -59.2848 186° South  Level FlightAware Approximate
09:32PM -16.3422 -59.3035 186° South  Level FlightAware Approximate
09:33PM -16.5005 -59.3222 186° South  Level FlightAware Approximate
09:34PM -16.6588 -59.3409 186° South  Level FlightAware Approximate
09:35PM -16.8170 -59.3596 186° South  Level FlightAware Approximate
09:36PM -16.9753 -59.3784 186° South  Level FlightAware Approximate
09:37PM -17.1336 -59.3972 186° South  Level FlightAware Approximate
09:38PM -17.2918 -59.4161 186° South  Level FlightAware Approximate
09:39PM -17.4501 -59.4349 186° South  Level FlightAware Approximate
09:40PM -17.6084 -59.4538 186° South  Level FlightAware Approximate
09:41PM -17.7666 -59.4728 187° South  Level FlightAware Approximate
09:42PM -17.9249 -59.4918 187° South  Level FlightAware Approximate
09:43PM -18.0832 -59.5108 187° South  Level FlightAware Approximate
09:44PM -18.2414 -59.5298 187° South  Level FlightAware Approximate
09:45PM -18.3997 -59.5489 187° South  Level FlightAware Approximate
09:46PM -18.5579 -59.5680 187° South  Level FlightAware Approximate
09:47PM -18.7162 -59.5872 187° South  Level FlightAware Approximate
09:48PM -18.8744 -59.6063 187° South  Level FlightAware Approximate
09:49PM -19.0327 -59.6255 187° South  Level FlightAware Approximate
09:50PM -19.1909 -59.6448 187° South  Level FlightAware Approximate
09:51PM -19.3492 -59.6641 187° South  Level FlightAware Approximate
09:52PM -19.5074 -59.6834 187° South  Level FlightAware Approximate
09:53PM -19.6656 -59.7028 187° South  Level FlightAware Approximate
09:54PM -19.8239 -59.7222 187° South  Level FlightAware Approximate
09:55PM -19.9821 -59.7416 187° South  Level FlightAware Approximate
09:56PM -20.1404 -59.7600 186° South  Level FlightAware Approximate
09:57PM -20.2975 -59.7859 184° South  Level FlightAware Approximate
09:58PM -20.4563 -59.7991 184° South  Level FlightAware Approximate
09:59PM -20.6147 -59.8164 186° South  Level FlightAware Approximate
10:00PM -20.7730 -59.8359 186° South  Level FlightAware Approximate
10:01PM -20.9312 -59.8552 189° South  Level FlightAware Approximate
10:02PM -21.0886 -59.8814 189° South  Level FlightAware Approximate
10:03PM -21.2463 -59.9046 185° South  Level FlightAware Approximate
10:04PM -21.4050 -59.9196 184° South  Level FlightAware Approximate
10:05PM -21.5639 -59.9318 184° South  Level FlightAware Approximate
10:06PM -21.7200 -59.9624 188° South  Level FlightAware Approximate
10:07PM -21.8783 -59.9757 191° South  Level FlightAware Approximate
10:08PM -22.0000 -60.0000 191° South  Level FlightAware Approximate
10:09PM -22.0963 -59.8631 191° South  Level Estimated
10:10PM -22.0000 -60.0000 191° South  Level FlightAware Approximate
10:11PM -22.0963 -59.8631 191° South  Level Estimated
10:12PM -22.0000 -60.0000 191° South  Level FlightAware Approximate
10:13PM -22.0963 -59.8631 191° South  Level Estimated
10:14PM -22.0000 -60.0000 191° South  Level FlightAware Approximate
10:15PM -22.0963 -59.8631 191° South  Level Estimated
10:16PM -22.0000 -60.0000 191° South  Level FlightAware Approximate
10:17PM -22.0963 -59.8631 191° South  Level Estimated